createdAt,value
2022-10-22T00:02:27.793Z,11.98
2022-10-22T00:04:57.031Z,11.93
2022-10-22T00:07:24.276Z,12.05
2022-10-22T00:09:50.948Z,11.93
2022-10-22T00:12:17.985Z,11.93
2022-10-22T00:14:44.680Z,11.96
2022-10-22T00:17:11.869Z,11.97
2022-10-22T00:19:39.836Z,11.96
2022-10-22T00:22:07.061Z,11.96
2022-10-22T00:24:34.812Z,11.94
2022-10-22T00:27:02.457Z,11.93
2022-10-22T00:29:29.500Z,11.95
2022-10-22T00:34:28.703Z,12.11
2022-10-22T00:36:55.465Z,12.08
2022-10-22T00:39:24.436Z,11.98
2022-10-22T00:41:52.671Z,11.96
2022-10-22T00:44:56.924Z,12.01
2022-10-22T00:47:25.480Z,12.00
2022-10-22T00:49:54.292Z,12.02
2022-10-22T00:52:22.625Z,12.07
2022-10-22T00:54:50.646Z,11.92
2022-10-22T00:57:19.410Z,11.91
2022-10-22T00:59:48.177Z,11.84
2022-10-22T01:02:15.575Z,11.85
2022-10-22T01:04:42.580Z,11.90
2022-10-22T01:07:18.013Z,11.92
2022-10-22T01:10:17.218Z,11.91
2022-10-22T01:13:02.289Z,11.96
2022-10-22T01:15:32.752Z,11.98
2022-10-22T01:18:10.847Z,11.93
2022-10-22T01:21:00.783Z,12.04
2022-10-22T01:23:36.670Z,11.97
2022-10-22T01:26:26.302Z,11.93
2022-10-22T01:29:17.417Z,11.98
2022-10-22T01:31:58.780Z,11.99
2022-10-22T01:34:27.258Z,11.91
2022-10-22T01:36:55.746Z,11.97
2022-10-22T01:39:23.480Z,12.15
2022-10-22T01:41:50.211Z,12.15
2022-10-22T01:44:37.714Z,12.08
2022-10-22T01:47:31.384Z,12.14
2022-10-22T01:50:13.248Z,12.12
2022-10-22T01:52:57.667Z,12.11
2022-10-22T01:55:36.459Z,12.11
2022-10-22T01:58:10.150Z,12.01
2022-10-22T02:00:45.406Z,12.00
2022-10-22T02:03:32.738Z,12.03
2022-10-22T02:06:05.801Z,12.10
2022-10-22T02:08:35.400Z,12.16
2022-10-22T02:11:02.979Z,12.05
2022-10-22T02:13:38.543Z,12.09
2022-10-22T02:16:09.708Z,12.03
2022-10-22T02:18:40.334Z,12.02
2022-10-22T02:23:35.825Z,12.07
2022-10-22T02:26:14.450Z,12.10
2022-10-22T02:28:55.721Z,12.08
2022-10-22T02:31:28.324Z,12.16
2022-10-22T02:33:58.033Z,12.15
2022-10-22T02:36:25.417Z,12.06
2022-10-22T02:38:52.669Z,12.05
2022-10-22T02:41:20.342Z,12.02
2022-10-22T02:43:54.573Z,12.08
2022-10-22T02:46:22.412Z,11.99
2022-10-22T02:48:49.334Z,11.99
2022-10-22T02:51:16.201Z,12.07
2022-10-22T02:53:42.941Z,12.02
2022-10-22T02:56:10.095Z,12.01
2022-10-22T02:58:36.823Z,11.97
2022-10-22T03:01:03.654Z,11.97
2022-10-22T03:03:30.389Z,11.97
2022-10-22T03:05:57.146Z,12.02
2022-10-22T03:08:23.863Z,12.03
2022-10-22T03:10:50.550Z,12.04
2022-10-22T03:13:17.269Z,12.11
2022-10-22T03:15:43.925Z,12.12
2022-10-22T03:18:10.734Z,12.04
2022-10-22T03:20:37.400Z,12.20
2022-10-22T03:23:04.112Z,12.08
2022-10-22T03:25:34.460Z,12.08
2022-10-22T03:28:08.645Z,12.06
2022-10-22T03:30:35.313Z,12.17
2022-10-22T03:33:02.470Z,12.08
2022-10-22T03:35:29.185Z,12.04
2022-10-22T03:37:55.883Z,12.21
2022-10-22T03:40:22.953Z,12.09
2022-10-22T03:42:49.679Z,12.07
2022-10-22T03:45:16.552Z,12.08
2022-10-22T03:47:43.520Z,12.00
2022-10-22T03:50:11.044Z,11.99
2022-10-22T03:52:40.124Z,11.97
2022-10-22T03:55:07.512Z,11.99
2022-10-22T03:57:34.463Z,11.99
2022-10-22T04:00:01.180Z,12.02
2022-10-22T04:02:28.098Z,11.98
2022-10-22T04:04:54.725Z,12.07
2022-10-22T04:07:21.456Z,12.00
2022-10-22T04:09:48.115Z,11.98
2022-10-22T04:12:14.821Z,11.98
2022-10-22T04:14:41.497Z,11.94
2022-10-22T04:17:08.240Z,11.94
2022-10-22T04:19:35.723Z,12.01
2022-10-22T04:22:02.436Z,12.10
2022-10-22T04:24:31.284Z,12.02
2022-10-22T04:26:58.577Z,12.18
2022-10-22T04:29:25.699Z,12.12
2022-10-22T04:31:52.673Z,12.11
2022-10-22T04:34:19.313Z,12.17
2022-10-22T04:36:45.985Z,12.08
2022-10-22T04:39:12.650Z,12.19
2022-10-22T04:41:39.772Z,12.15
2022-10-22T04:44:09.902Z,12.19
2022-10-22T04:46:40.274Z,12.16
2022-10-22T04:49:06.965Z,12.17
2022-10-22T04:51:33.688Z,12.08
2022-10-22T04:54:00.427Z,12.05
2022-10-22T04:56:30.127Z,12.14
2022-10-22T04:58:59.471Z,12.10
2022-10-22T05:01:29.030Z,12.25
2022-10-22T05:03:57.925Z,12.12
2022-10-22T05:06:25.332Z,12.11
2022-10-22T05:09:00.903Z,12.11
2022-10-22T05:11:38.988Z,12.11
2022-10-22T05:14:07.739Z,12.17
2022-10-22T05:16:35.167Z,12.14
2022-10-22T05:19:02.637Z,12.12
2022-10-22T05:21:29.819Z,12.15
2022-10-22T05:23:59.655Z,12.10
2022-10-22T05:26:28.080Z,12.22
2022-10-22T05:28:55.161Z,12.25
2022-10-22T05:31:22.182Z,12.19
2022-10-22T05:33:48.996Z,12.14
2022-10-22T05:36:18.808Z,12.25
2022-10-22T05:38:45.984Z,12.14
2022-10-22T05:41:18.903Z,12.11
2022-10-22T05:43:46.241Z,12.15
2022-10-22T05:46:22.242Z,12.20
2022-10-22T05:49:00.699Z,12.17
2022-10-22T05:51:29.379Z,12.22
2022-10-22T05:53:58.485Z,12.21
2022-10-22T05:56:26.552Z,12.17
2022-10-22T05:58:53.885Z,12.11
2022-10-22T06:01:27.330Z,12.22
2022-10-22T06:03:56.016Z,12.22
2022-10-22T06:06:36.882Z,12.26
2022-10-22T06:09:06.501Z,12.11
2022-10-22T06:11:35.201Z,12.18
2022-10-22T06:14:02.966Z,12.18
2022-10-22T06:16:30.765Z,12.14
2022-10-22T06:19:01.869Z,12.19
2022-10-22T06:21:29.529Z,12.20
2022-10-22T06:23:57.094Z,12.20
2022-10-22T06:26:24.853Z,12.23
2022-10-22T06:28:51.764Z,12.22
2022-10-22T06:31:18.768Z,12.20
2022-10-22T06:33:45.444Z,12.27
2022-10-22T06:36:14.888Z,12.19
2022-10-22T06:38:42.612Z,12.22
2022-10-22T06:41:12.257Z,12.13
2022-10-22T06:43:39.398Z,12.28
2022-10-22T06:46:14.819Z,12.23
2022-10-22T06:48:55.387Z,12.14
2022-10-22T06:51:22.233Z,12.09
2022-10-22T06:53:49.314Z,12.13
2022-10-22T06:56:18.868Z,12.01
2022-10-22T06:58:50.314Z,12.08
2022-10-22T07:01:19.401Z,12.11
2022-10-22T07:03:46.873Z,12.04
2022-10-22T07:06:14.921Z,12.10
2022-10-22T07:08:42.503Z,12.09
2022-10-22T07:11:11.856Z,12.13
2022-10-22T07:13:39.226Z,12.11
2022-10-22T07:16:07.410Z,12.04
2022-10-22T07:18:35.291Z,12.02
2022-10-22T07:21:02.171Z,12.16
2022-10-22T07:23:30.573Z,12.10
2022-10-22T07:25:57.662Z,12.07
2022-10-22T07:28:24.407Z,12.01
2022-10-22T07:30:51.374Z,12.08
2022-10-22T07:33:18.177Z,12.01
2022-10-22T07:35:44.833Z,12.02
2022-10-22T07:38:11.605Z,12.09
2022-10-22T07:40:38.620Z,12.13
2022-10-22T07:43:06.819Z,12.09
2022-10-22T07:45:33.891Z,12.22
2022-10-22T07:48:00.773Z,12.15
2022-10-22T07:50:27.499Z,12.17
2022-10-22T07:52:56.073Z,12.13
2022-10-22T07:55:24.326Z,12.17
2022-10-22T07:57:51.141Z,12.20
2022-10-22T08:00:20.459Z,12.30
2022-10-22T08:02:49.832Z,12.28
2022-10-22T08:05:16.719Z,12.27
2022-10-22T08:07:43.601Z,12.24
2022-10-22T08:10:11.878Z,12.32
2022-10-22T08:12:39.991Z,12.24
2022-10-22T08:15:07.875Z,12.30
2022-10-22T08:17:34.658Z,12.33
2022-10-22T08:20:01.450Z,12.37
2022-10-22T08:22:28.197Z,12.35
2022-10-22T08:24:54.814Z,12.34
2022-10-22T08:27:21.910Z,12.45
2022-10-22T08:29:48.633Z,12.44
2022-10-22T08:32:15.576Z,12.43
2022-10-22T08:34:42.360Z,12.45
2022-10-22T08:37:10.546Z,12.56
2022-10-22T08:39:37.180Z,12.48
2022-10-22T08:42:26.997Z,12.61
2022-10-22T08:45:05.660Z,12.56
2022-10-22T08:48:00.058Z,12.60
2022-10-22T08:50:35.623Z,12.50
2022-10-22T08:53:06.904Z,12.50
2022-10-22T08:55:37.402Z,12.46
2022-10-22T08:58:17.609Z,12.56
2022-10-22T09:00:58.593Z,12.57
2022-10-22T09:03:50.655Z,12.64
2022-10-22T09:06:26.674Z,12.54
2022-10-22T09:08:54.867Z,12.58
2022-10-22T09:11:21.491Z,12.70
2022-10-22T09:13:49.446Z,12.61
2022-10-22T09:16:20.935Z,12.64
2022-10-22T09:19:02.658Z,12.79
2022-10-22T09:21:39.905Z,12.75
2022-10-22T09:24:12.564Z,12.64
2022-10-22T09:26:41.295Z,12.77
2022-10-22T09:29:17.724Z,12.75
2022-10-22T09:31:44.725Z,12.80
2022-10-22T09:34:15.453Z,12.89
2022-10-22T09:36:42.308Z,12.81
2022-10-22T09:39:26.504Z,12.92
2022-10-22T09:41:53.287Z,12.97
2022-10-22T09:44:20.648Z,13.02
2022-10-22T09:46:47.469Z,12.99
2022-10-22T09:49:17.890Z,12.92
2022-10-22T09:52:00.921Z,12.92
2022-10-22T09:54:38.577Z,12.92
2022-10-22T09:57:22.172Z,12.91
2022-10-22T09:59:50.710Z,12.94
2022-10-22T10:02:37.956Z,12.98
2022-10-22T10:05:06.699Z,12.86
2022-10-22T10:07:35.353Z,12.85
2022-10-22T10:10:03.077Z,12.92
2022-10-22T10:12:41.851Z,12.87
2022-10-22T10:15:24.644Z,12.89
2022-10-22T10:17:51.315Z,12.92
2022-10-22T10:20:24.267Z,12.91
2022-10-22T10:23:09.539Z,12.93
2022-10-22T10:25:42.001Z,13.01
2022-10-22T10:28:29.828Z,13.03
2022-10-22T10:31:19.600Z,13.10
2022-10-22T10:34:04.977Z,13.18
2022-10-22T10:36:58.885Z,13.18
2022-10-22T10:39:34.661Z,13.11
2022-10-22T10:42:27.075Z,13.24
2022-10-22T10:45:09.822Z,13.21
2022-10-22T10:48:08.253Z,13.36
2022-10-22T10:50:42.844Z,13.50
2022-10-22T10:53:44.515Z,13.56
2022-10-22T10:56:13.944Z,13.75
2022-10-22T10:58:43.391Z,13.57
2022-10-22T11:01:26.576Z,13.79
2022-10-22T11:04:19.308Z,13.79
2022-10-22T11:06:46.827Z,13.81
2022-10-22T11:09:51.007Z,13.90
2022-10-22T11:12:24.948Z,13.88
2022-10-22T11:15:25.655Z,13.85
2022-10-22T11:17:57.231Z,13.75
2022-10-22T11:20:50.870Z,13.88
2022-10-22T11:23:32.833Z,13.98
2022-10-22T11:26:01.750Z,13.82
2022-10-22T11:28:37.774Z,14.08
2022-10-22T11:31:10.604Z,14.08
2022-10-22T11:33:50.669Z,14.09
2022-10-22T11:36:21.191Z,14.14
2022-10-22T11:38:48.594Z,14.02
2022-10-22T11:41:23.860Z,13.86
2022-10-22T11:43:56.705Z,13.91
2022-10-22T11:46:23.345Z,14.01
2022-10-22T11:49:03.833Z,13.86
2022-10-22T11:51:37.477Z,14.13
2022-10-22T11:54:42.277Z,14.04
2022-10-22T11:57:15.077Z,13.98
2022-10-22T11:59:47.823Z,13.87
2022-10-22T12:03:03.759Z,13.98
2022-10-22T12:05:36.869Z,13.87
2022-10-22T12:08:16.710Z,13.89
2022-10-22T12:11:13.938Z,13.94
2022-10-22T12:13:58.813Z,13.88
2022-10-22T12:16:43.931Z,14.23
2022-10-22T12:19:29.390Z,14.45
2022-10-22T12:21:58.823Z,14.53
2022-10-22T12:24:29.441Z,14.38
2022-10-22T12:26:56.092Z,14.58
2022-10-22T12:29:24.011Z,14.59
2022-10-22T12:31:50.783Z,14.66
2022-10-22T12:34:26.560Z,14.41
2022-10-22T12:36:53.998Z,14.40
2022-10-22T12:39:25.195Z,14.57
2022-10-22T12:41:53.616Z,14.76
2022-10-22T12:44:20.768Z,15.09
2022-10-22T12:46:51.804Z,15.05
2022-10-22T12:49:24.889Z,15.10
2022-10-22T12:51:51.636Z,15.19
2022-10-22T12:54:25.275Z,15.09
2022-10-22T12:56:53.737Z,14.76
2022-10-22T12:59:26.832Z,14.84
2022-10-22T13:01:54.490Z,14.63
2022-10-22T13:04:21.199Z,14.81
2022-10-22T13:06:50.777Z,14.83
2022-10-22T13:09:23.879Z,14.88
2022-10-22T13:12:04.770Z,14.60
2022-10-22T13:14:34.211Z,14.54
2022-10-22T13:17:19.587Z,14.46
2022-10-22T13:19:49.099Z,14.27
2022-10-22T13:22:37.006Z,14.29
2022-10-22T13:25:28.646Z,14.25
2022-10-22T13:28:13.025Z,14.16
2022-10-22T13:30:51.312Z,14.11
2022-10-22T13:33:28.826Z,14.18
2022-10-22T13:35:56.848Z,14.23
2022-10-22T13:38:25.685Z,14.09
2022-10-22T13:40:52.755Z,14.03
2022-10-22T13:43:20.126Z,13.94
2022-10-22T13:45:55.136Z,13.89
2022-10-22T13:48:24.439Z,13.78
2022-10-22T13:50:52.310Z,13.65
2022-10-22T13:53:22.157Z,13.50
2022-10-22T13:55:50.255Z,13.33
2022-10-22T13:58:19.494Z,13.33
2022-10-22T14:00:49.444Z,13.10
2022-10-22T14:03:19.879Z,13.08
2022-10-22T14:05:47.765Z,12.89
2022-10-22T14:08:18.471Z,12.80
2022-10-22T14:10:45.248Z,12.87
2022-10-22T14:13:13.853Z,12.86
2022-10-22T14:15:41.692Z,12.99
2022-10-22T14:18:12.264Z,13.12
2022-10-22T14:20:42.057Z,13.34
2022-10-22T14:23:14.583Z,13.60
2022-10-22T14:25:41.975Z,13.55
2022-10-22T14:28:11.874Z,13.55
2022-10-22T14:30:39.351Z,13.48
2022-10-22T14:33:17.245Z,13.31
2022-10-22T14:35:43.920Z,13.18
2022-10-22T14:38:10.682Z,12.99
2022-10-22T14:40:41.879Z,12.96
2022-10-22T14:43:21.246Z,12.89
2022-10-22T14:45:48.394Z,12.90
2022-10-22T14:48:16.172Z,12.93
2022-10-22T14:50:44.270Z,12.92
2022-10-22T14:53:12.647Z,12.88
2022-10-22T14:55:40.695Z,12.91
2022-10-22T14:58:07.492Z,12.95
2022-10-22T15:00:36.853Z,12.94
2022-10-22T15:03:04.429Z,12.92
2022-10-22T15:05:31.454Z,12.91
2022-10-22T15:07:59.285Z,12.92
2022-10-22T15:10:26.498Z,12.88
2022-10-22T15:12:53.299Z,12.89
2022-10-22T15:15:22.702Z,12.82
2022-10-22T15:17:50.478Z,12.83
2022-10-22T15:20:17.252Z,12.86
2022-10-22T15:22:45.317Z,12.87
2022-10-22T15:25:13.581Z,12.82
2022-10-22T15:27:40.394Z,12.74
2022-10-22T15:30:08.033Z,12.77
2022-10-22T15:32:35.344Z,12.67
2022-10-22T15:35:02.425Z,12.57
2022-10-22T15:37:29.179Z,12.63
2022-10-22T15:39:56.018Z,12.64
2022-10-22T15:42:23.911Z,12.65
2022-10-22T15:44:57.967Z,12.65
2022-10-22T15:47:28.478Z,12.63
2022-10-22T15:49:55.689Z,12.61
2022-10-22T15:52:22.478Z,12.67
2022-10-22T15:54:49.250Z,12.67
2022-10-22T15:57:15.929Z,12.69
2022-10-22T15:59:42.642Z,12.67
2022-10-22T16:02:11.528Z,12.66
2022-10-22T16:04:38.924Z,12.56
2022-10-22T16:07:06.665Z,12.54
2022-10-22T16:09:33.379Z,12.48
2022-10-22T16:12:00.158Z,12.50
2022-10-22T16:14:28.700Z,12.41
2022-10-22T16:16:55.930Z,12.40
2022-10-22T16:19:24.064Z,12.46
2022-10-22T16:21:52.614Z,12.38
2022-10-22T16:24:20.097Z,12.34
2022-10-22T16:26:47.907Z,12.33
2022-10-22T16:29:15.161Z,12.25
2022-10-22T16:31:43.659Z,12.20
2022-10-22T16:34:10.592Z,12.23
2022-10-22T16:36:38.334Z,12.26
2022-10-22T16:39:05.941Z,12.25
2022-10-22T16:41:36.399Z,12.24
2022-10-22T16:44:06.644Z,12.25
2022-10-22T16:46:33.838Z,12.21
2022-10-22T16:49:00.603Z,12.20
2022-10-22T16:51:28.437Z,12.14
2022-10-22T16:53:57.223Z,12.07
2022-10-22T16:56:25.243Z,12.10
2022-10-22T16:58:54.318Z,11.98
2022-10-22T17:01:22.622Z,11.95
2022-10-22T17:03:49.362Z,11.87
2022-10-22T17:06:16.017Z,11.92
2022-10-22T17:08:43.172Z,11.93
2022-10-22T17:11:12.713Z,11.92
2022-10-22T17:13:42.351Z,11.78
2022-10-22T17:16:12.099Z,11.79
2022-10-22T17:18:40.812Z,11.71
2022-10-22T17:21:10.635Z,11.73
2022-10-22T17:23:37.574Z,11.70
2022-10-22T17:26:07.625Z,11.64
2022-10-22T17:28:38.603Z,11.64
2022-10-22T17:31:26.670Z,11.64
2022-10-22T17:33:55.682Z,11.72
2022-10-22T17:36:24.767Z,11.64
2022-10-22T17:38:54.157Z,11.63
2022-10-22T17:41:26.944Z,11.65
2022-10-22T17:43:53.804Z,11.71
2022-10-22T17:46:22.669Z,11.61
2022-10-22T17:48:53.694Z,11.59
2022-10-22T17:51:21.676Z,11.60
2022-10-22T17:53:50.765Z,11.61
2022-10-22T17:56:21.154Z,11.68
2022-10-22T17:58:48.449Z,11.68
2022-10-22T18:01:23.687Z,11.70
2022-10-22T18:03:51.998Z,11.59
2022-10-22T18:06:18.875Z,11.68
2022-10-22T18:08:45.862Z,11.65
2022-10-22T18:11:17.795Z,11.66
2022-10-22T18:13:44.984Z,11.64
2022-10-22T18:16:12.548Z,11.62
2022-10-22T18:18:39.366Z,11.64
2022-10-22T18:21:06.322Z,11.67
2022-10-22T18:23:33.456Z,11.67
2022-10-22T18:26:00.165Z,11.69
2022-10-22T18:28:26.837Z,11.67
2022-10-22T18:30:53.494Z,11.69
2022-10-22T18:33:23.990Z,11.63
2022-10-22T18:35:53.107Z,11.63
2022-10-22T18:38:22.915Z,11.64
2022-10-22T18:40:50.207Z,11.62
2022-10-22T18:43:18.128Z,11.66
2022-10-22T18:45:46.304Z,11.72
2022-10-22T18:48:15.170Z,11.76
2022-10-22T18:50:42.408Z,11.79
2022-10-22T18:53:09.231Z,11.84
2022-10-22T18:55:38.572Z,11.85
2022-10-22T18:58:05.723Z,11.89
2022-10-22T19:00:34.860Z,11.88
2022-10-22T19:03:03.185Z,11.82
2022-10-22T19:05:30.042Z,11.85
2022-10-22T19:07:56.717Z,11.83
2022-10-22T19:10:23.691Z,11.84
2022-10-22T19:12:50.358Z,11.87
2022-10-22T19:15:17.142Z,11.89
2022-10-22T19:17:43.953Z,11.95
2022-10-22T19:20:11.029Z,12.00
2022-10-22T19:22:37.755Z,12.02
2022-10-22T19:25:06.069Z,12.05
2022-10-22T19:27:36.536Z,12.05
2022-10-22T19:30:04.735Z,12.09
2022-10-22T19:32:31.638Z,12.09
2022-10-22T19:34:58.473Z,12.05
2022-10-22T19:37:25.245Z,12.07
2022-10-22T19:39:51.986Z,12.05
2022-10-22T19:42:18.730Z,12.07
2022-10-22T19:44:45.440Z,12.08
2022-10-22T19:47:12.250Z,12.05
2022-10-22T19:49:38.962Z,12.03
2022-10-22T19:52:05.906Z,12.02
2022-10-22T19:54:32.651Z,12.02
2022-10-22T19:56:59.336Z,12.00
2022-10-22T19:59:29.853Z,11.96
2022-10-22T20:01:58.167Z,11.96
2022-10-22T20:04:28.086Z,11.90
2022-10-22T20:06:55.178Z,11.88
2022-10-22T20:09:22.028Z,11.87
2022-10-22T20:11:48.762Z,11.82
2022-10-22T20:14:15.490Z,11.81
2022-10-22T20:16:42.941Z,11.79
2022-10-22T20:19:10.896Z,11.78
2022-10-22T20:21:37.884Z,11.78
2022-10-22T20:24:04.682Z,11.74
2022-10-22T20:26:31.765Z,11.69
2022-10-22T20:28:58.861Z,11.67
2022-10-22T20:31:28.610Z,11.67
2022-10-22T20:33:57.980Z,11.62
2022-10-22T20:36:25.248Z,11.61
2022-10-22T20:38:52.360Z,11.57
2022-10-22T20:41:22.408Z,11.57
2022-10-22T20:43:51.159Z,11.55
2022-10-22T20:46:26.940Z,11.55
2022-10-22T20:48:58.527Z,11.45
2022-10-22T20:51:25.287Z,11.46
2022-10-22T20:53:51.926Z,11.46
2022-10-22T20:56:19.896Z,11.48
2022-10-22T20:58:50.505Z,11.52
2022-10-22T21:01:21.872Z,11.54
2022-10-22T21:03:49.853Z,11.59
2022-10-22T21:06:17.511Z,11.59
2022-10-22T21:08:44.302Z,11.60
2022-10-22T21:11:11.009Z,11.64
2022-10-22T21:13:37.794Z,11.69
2022-10-22T21:16:12.779Z,11.69
2022-10-22T21:18:40.066Z,11.69
2022-10-22T21:21:08.296Z,11.68
2022-10-22T21:23:36.314Z,11.68
2022-10-22T21:26:03.740Z,11.67
2022-10-22T21:28:35.415Z,11.62
2022-10-22T21:31:08.310Z,11.59
2022-10-22T21:33:39.297Z,11.57
2022-10-22T21:36:07.365Z,11.57
2022-10-22T21:38:34.799Z,11.54
2022-10-22T21:41:13.438Z,11.44
2022-10-22T21:43:41.699Z,11.40
2022-10-22T21:46:20.069Z,11.48
2022-10-22T21:48:48.424Z,11.36
2022-10-22T21:51:19.582Z,11.28
2022-10-22T21:53:47.256Z,11.27
2022-10-22T21:56:16.799Z,11.17
2022-10-22T21:58:43.955Z,11.16
2022-10-22T22:01:11.264Z,11.14
2022-10-22T22:03:38.508Z,11.10
2022-10-22T22:06:06.762Z,11.11
2022-10-22T22:08:39.316Z,11.04
2022-10-22T22:11:07.935Z,10.99
2022-10-22T22:13:35.603Z,10.95
2022-10-22T22:16:07.582Z,10.90
2022-10-22T22:18:35.141Z,10.93
2022-10-22T22:21:06.081Z,10.95
2022-10-22T22:23:33.233Z,10.96
2022-10-22T22:48:59.753Z,11.00
2022-10-22T23:13:28.429Z,10.82
2022-10-22T23:16:21.631Z,10.79
2022-10-22T23:23:25.538Z,10.74
2022-10-22T23:26:17.149Z,10.72
2022-10-22T23:28:52.912Z,10.69
2022-10-22T23:31:21.819Z,10.71
2022-10-22T23:33:48.803Z,10.67
2022-10-22T23:36:15.687Z,10.73
2022-10-22T23:38:42.584Z,10.73
2022-10-22T23:41:09.665Z,10.74
2022-10-22T23:43:37.841Z,10.77
2022-10-22T23:46:09.483Z,10.78
2022-10-22T23:48:36.348Z,10.74
2022-10-22T23:51:12.071Z,10.73
2022-10-22T23:53:39.133Z,10.72
2022-10-22T23:56:08.853Z,10.71
2022-10-22T23:58:36.121Z,10.67
